createdAt,value
2023-05-05T00:04:34.736Z,44.10
2023-05-05T00:07:01.528Z,43.08
2023-05-05T00:09:28.183Z,44.56
2023-05-05T00:11:54.825Z,44.60
2023-05-05T00:14:21.384Z,44.77
2023-05-05T00:16:48.062Z,45.23
2023-05-05T00:19:14.650Z,46.74
2023-05-05T00:21:41.359Z,47.32
2023-05-05T00:24:10.139Z,47.52
2023-05-05T00:26:54.089Z,47.87
2023-05-05T00:29:21.105Z,48.13
2023-05-05T00:31:47.705Z,48.15
2023-05-05T00:34:14.278Z,48.48
2023-05-05T00:36:41.411Z,49.16
2023-05-05T00:39:08.147Z,49.46
2023-05-05T00:41:34.626Z,49.30
2023-05-05T00:44:01.403Z,48.57
2023-05-05T00:46:30.890Z,48.15
2023-05-05T00:48:57.983Z,48.49
2023-05-05T00:51:25.350Z,48.61
2023-05-05T00:53:52.339Z,48.58
2023-05-05T00:56:21.012Z,48.83
2023-05-05T00:58:48.261Z,49.35
2023-05-05T01:01:15.661Z,49.11
2023-05-05T01:03:42.585Z,48.53
2023-05-05T01:06:24.471Z,49.66
2023-05-05T01:09:12.974Z,49.83
2023-05-05T01:11:45.852Z,48.87
2023-05-05T01:14:16.984Z,48.65
2023-05-05T01:16:59.929Z,48.67
2023-05-05T01:19:54.576Z,49.37
2023-05-05T01:22:27.148Z,49.82
2023-05-05T01:25:02.805Z,50.38
2023-05-05T01:27:55.738Z,51.01
2023-05-05T01:30:50.146Z,50.22
2023-05-05T01:33:23.345Z,49.66
2023-05-05T01:35:57.789Z,51.11
2023-05-05T01:38:32.504Z,48.83
2023-05-05T01:41:08.250Z,49.91
2023-05-05T01:43:37.041Z,50.14
2023-05-05T01:46:06.195Z,50.65
2023-05-05T01:48:33.569Z,49.99
2023-05-05T01:51:05.319Z,50.05
2023-05-05T01:53:33.371Z,50.57
2023-05-05T01:56:01.934Z,51.27
2023-05-05T01:58:30.034Z,51.27
2023-05-05T02:03:56.967Z,50.81
2023-05-05T02:06:24.870Z,51.69
2023-05-05T02:08:53.342Z,51.80
2023-05-05T02:11:21.791Z,52.15
2023-05-05T02:13:50.063Z,52.40
2023-05-05T02:16:18.715Z,55.78
2023-05-05T02:18:47.381Z,54.37
2023-05-05T02:21:17.816Z,55.08
2023-05-05T02:23:51.794Z,56.29
2023-05-05T02:26:21.824Z,57.47
2023-05-05T02:28:58.602Z,55.73
2023-05-05T02:31:28.065Z,56.49
2023-05-05T02:33:57.714Z,57.57
2023-05-05T02:36:29.715Z,57.57
2023-05-05T02:39:02.398Z,58.07
2023-05-05T02:41:31.517Z,57.29
2023-05-05T02:44:02.421Z,57.76
2023-05-05T02:46:29.340Z,57.62
2023-05-05T02:48:56.122Z,57.35
2023-05-05T02:51:22.734Z,57.24
2023-05-05T02:53:49.386Z,57.71
2023-05-05T02:56:43.092Z,58.00
2023-05-05T02:59:31.175Z,59.09
2023-05-05T03:02:15.823Z,59.82
2023-05-05T03:04:48.865Z,58.87
2023-05-05T03:07:33.426Z,60.83
2023-05-05T03:10:18.673Z,58.85
2023-05-05T03:12:58.458Z,61.95
2023-05-05T03:15:37.067Z,59.05
2023-05-05T03:18:06.458Z,59.51
2023-05-05T03:20:33.403Z,59.53
2023-05-05T03:23:02.269Z,60.68
2023-05-05T03:25:48.074Z,60.30
2023-05-05T03:28:15.302Z,60.54
2023-05-05T03:30:42.726Z,60.66
2023-05-05T03:33:11.659Z,61.07
2023-05-05T03:35:38.774Z,60.23
2023-05-05T03:38:06.014Z,60.01
2023-05-05T03:40:43.563Z,61.06
2023-05-05T03:43:11.554Z,61.30
2023-05-05T03:45:38.376Z,62.12
2023-05-05T03:48:05.364Z,61.39
2023-05-05T03:50:32.021Z,61.71
2023-05-05T03:52:58.519Z,61.73
2023-05-05T03:55:25.180Z,61.19
2023-05-05T03:57:51.817Z,61.75
2023-05-05T04:00:18.760Z,61.65
2023-05-05T04:02:45.365Z,61.53
2023-05-05T04:05:12.178Z,62.25
2023-05-05T04:07:38.936Z,62.40
2023-05-05T04:10:07.146Z,62.26
2023-05-05T04:12:33.897Z,61.60
2023-05-05T04:15:00.575Z,61.92
2023-05-05T04:17:27.116Z,62.69
2023-05-05T04:19:53.808Z,63.01
2023-05-05T04:22:20.804Z,62.50
2023-05-05T04:24:47.858Z,63.02
2023-05-05T04:27:14.358Z,62.97
2023-05-05T04:29:41.387Z,63.46
2023-05-05T04:32:08.284Z,63.40
2023-05-05T04:34:35.027Z,63.70
2023-05-05T04:37:01.950Z,62.73
2023-05-05T04:39:28.554Z,63.66
2023-05-05T04:41:55.096Z,64.63
2023-05-05T04:44:21.804Z,64.34
2023-05-05T04:46:48.342Z,65.14
2023-05-05T04:49:14.907Z,64.07
2023-05-05T04:51:42.976Z,64.83
2023-05-05T04:54:09.770Z,64.23
2023-05-05T04:56:37.183Z,64.98
2023-05-05T04:59:03.903Z,65.49
2023-05-05T05:01:30.612Z,66.24
2023-05-05T05:03:57.333Z,67.21
2023-05-05T05:06:24.264Z,67.96
2023-05-05T05:08:50.708Z,68.67
2023-05-05T05:11:17.244Z,70.30
2023-05-05T05:13:43.821Z,70.61
2023-05-05T05:16:10.416Z,70.90
2023-05-05T05:18:37.031Z,71.42
2023-05-05T05:21:03.784Z,71.70
2023-05-05T05:23:30.706Z,72.02
2023-05-05T05:25:57.626Z,71.90
2023-05-05T05:28:24.286Z,72.58
2023-05-05T05:30:52.109Z,72.13
2023-05-05T05:33:19.038Z,72.23
2023-05-05T05:35:46.070Z,72.26
2023-05-05T05:38:12.685Z,71.68
2023-05-05T05:40:39.184Z,71.94
2023-05-05T05:43:05.785Z,71.25
2023-05-05T05:45:32.271Z,71.38
2023-05-05T05:47:58.801Z,70.48
2023-05-05T05:50:28.554Z,70.18
2023-05-05T05:52:55.787Z,70.16
2023-05-05T05:55:22.383Z,70.10
2023-05-05T05:57:48.934Z,69.54
2023-05-05T06:00:16.008Z,69.17
2023-05-05T06:02:42.766Z,69.00
2023-05-05T06:05:10.516Z,67.93
2023-05-05T06:07:37.024Z,67.70
2023-05-05T06:10:18.619Z,67.32
2023-05-05T06:12:50.656Z,67.30
2023-05-05T06:15:17.226Z,66.71
2023-05-05T06:17:43.760Z,66.35
2023-05-05T06:20:10.985Z,65.79
2023-05-05T06:22:37.508Z,65.55
2023-05-05T06:25:04.525Z,65.00
2023-05-05T06:27:31.050Z,64.11
2023-05-05T06:29:57.741Z,64.46
2023-05-05T06:32:24.333Z,64.14
2023-05-05T06:34:51.248Z,62.49
2023-05-05T06:37:17.893Z,63.95
2023-05-05T06:39:44.502Z,63.96
2023-05-05T06:42:11.099Z,63.40
2023-05-05T06:44:37.785Z,62.90
2023-05-05T06:47:04.327Z,62.96
2023-05-05T06:49:31.307Z,63.22
2023-05-05T06:51:57.835Z,62.64
2023-05-05T06:54:24.399Z,59.23
2023-05-05T06:56:51.004Z,61.36
2023-05-05T06:59:17.487Z,61.36
2023-05-05T07:01:44.238Z,61.43
2023-05-05T07:04:11.234Z,61.39
2023-05-05T07:06:37.910Z,60.58
2023-05-05T07:09:04.752Z,60.83
2023-05-05T07:11:31.362Z,59.94
2023-05-05T07:13:57.909Z,59.96
2023-05-05T07:16:25.283Z,60.27
2023-05-05T07:18:51.813Z,59.90
2023-05-05T07:21:18.479Z,59.98
2023-05-05T07:23:47.743Z,58.40
2023-05-05T07:26:15.311Z,59.18
2023-05-05T07:28:43.222Z,59.19
2023-05-05T07:31:09.797Z,59.15
2023-05-05T07:33:36.772Z,58.92
2023-05-05T07:36:03.817Z,59.91
2023-05-05T07:38:30.428Z,59.44
2023-05-05T07:43:51.018Z,59.01
2023-05-05T07:46:34.526Z,59.20
2023-05-05T07:49:01.694Z,58.96
2023-05-05T07:51:28.166Z,58.83
2023-05-05T07:53:56.200Z,58.59
2023-05-05T07:56:23.307Z,58.38
2023-05-05T07:58:49.945Z,58.51
2023-05-05T08:01:16.785Z,57.88
2023-05-05T08:03:43.691Z,57.88
2023-05-05T08:06:12.036Z,57.70
2023-05-05T08:09:02.125Z,56.17
2023-05-05T08:11:38.935Z,56.97
2023-05-05T08:14:07.199Z,56.45
2023-05-05T08:16:59.827Z,56.29
2023-05-05T08:19:29.587Z,56.15
2023-05-05T08:22:01.087Z,55.96
2023-05-05T08:24:28.704Z,55.33
2023-05-05T08:26:56.752Z,55.66
2023-05-05T08:29:23.918Z,55.21
2023-05-05T08:31:52.005Z,53.53
2023-05-05T08:34:18.702Z,51.91
2023-05-05T08:36:45.384Z,53.00
2023-05-05T08:39:12.350Z,52.91
2023-05-05T08:41:39.019Z,52.88
2023-05-05T08:44:05.700Z,52.77
2023-05-05T08:46:33.149Z,52.53
2023-05-05T08:49:03.888Z,52.56
2023-05-05T08:51:42.725Z,51.67
2023-05-05T08:54:17.520Z,51.35
2023-05-05T08:56:47.169Z,52.09
2023-05-05T08:59:15.646Z,52.17
2023-05-05T09:01:42.893Z,51.88
2023-05-05T09:04:10.000Z,51.76
2023-05-05T09:06:38.249Z,51.50
2023-05-05T09:12:55.539Z,51.59
2023-05-05T09:15:25.314Z,51.43
2023-05-05T09:17:51.912Z,51.16
2023-05-05T09:20:21.804Z,51.22
2023-05-05T09:22:49.012Z,51.07
2023-05-05T09:25:24.395Z,51.15
2023-05-05T09:27:52.693Z,51.04
2023-05-05T09:30:28.209Z,51.13
2023-05-05T09:32:55.972Z,50.84
2023-05-05T09:35:25.721Z,50.71
2023-05-05T09:37:56.126Z,50.94
2023-05-05T09:40:52.031Z,50.27
2023-05-05T09:43:36.556Z,50.87
2023-05-05T09:46:08.938Z,50.53
2023-05-05T09:48:36.170Z,50.43
2023-05-05T09:51:02.816Z,50.42
2023-05-05T09:53:39.628Z,50.26
2023-05-05T09:56:07.227Z,50.46
2023-05-05T09:58:33.925Z,50.69
2023-05-05T10:01:01.252Z,50.66
2023-05-05T10:03:28.176Z,50.69
2023-05-05T10:05:59.928Z,50.78
2023-05-05T10:08:34.973Z,51.08
2023-05-05T10:11:11.098Z,51.11
2023-05-05T10:13:42.028Z,50.73
2023-05-05T10:16:11.772Z,50.49
2023-05-05T10:18:46.275Z,51.05
2023-05-05T10:21:23.401Z,56.00
2023-05-05T10:23:58.278Z,62.86
2023-05-05T10:26:27.800Z,69.23
2023-05-05T10:29:04.216Z,68.91
2023-05-05T10:31:41.897Z,71.17
2023-05-05T10:34:21.822Z,75.99
2023-05-05T10:36:49.673Z,78.16
2023-05-05T10:39:20.257Z,76.38
2023-05-05T10:41:47.405Z,80.17
2023-05-05T10:44:15.142Z,79.58
2023-05-05T10:46:43.270Z,78.11
2023-05-05T10:49:28.267Z,77.46
2023-05-05T10:52:21.245Z,76.75
2023-05-05T10:55:01.318Z,76.95
2023-05-05T10:57:31.236Z,77.42
2023-05-05T10:59:57.955Z,79.09
2023-05-05T11:02:27.279Z,77.76
2023-05-05T11:05:21.494Z,79.03
2023-05-05T11:07:50.243Z,76.77
2023-05-05T11:10:21.270Z,78.67
2023-05-05T11:13:02.957Z,78.73
2023-05-05T11:15:29.854Z,76.99
2023-05-05T11:17:57.345Z,77.78
2023-05-05T11:23:31.304Z,78.83
2023-05-05T11:25:59.686Z,78.28
2023-05-05T11:28:31.602Z,77.63
2023-05-05T11:31:01.608Z,77.48
2023-05-05T11:33:37.146Z,77.90
2023-05-05T11:36:19.362Z,78.88
2023-05-05T11:39:07.837Z,77.76
2023-05-05T11:41:57.010Z,77.87
2023-05-05T11:44:33.236Z,78.50
2023-05-05T11:47:02.536Z,78.18
2023-05-05T11:49:38.073Z,79.09
2023-05-05T11:52:07.411Z,79.16
2023-05-05T11:54:40.553Z,80.23
2023-05-05T11:57:09.066Z,80.35
2023-05-05T11:59:37.480Z,80.00
2023-05-05T12:02:04.797Z,80.11
2023-05-05T12:04:32.439Z,80.23
2023-05-05T12:06:59.686Z,79.96
2023-05-05T12:09:27.631Z,80.51
2023-05-05T12:11:58.833Z,80.65
2023-05-05T12:14:25.765Z,80.52
2023-05-05T12:17:02.969Z,80.41
2023-05-05T12:19:33.286Z,80.29
2023-05-05T12:22:01.601Z,80.32
2023-05-05T12:24:28.630Z,80.95
2023-05-05T12:26:55.311Z,80.54
2023-05-05T12:29:28.991Z,81.00
2023-05-05T12:31:58.177Z,81.28
2023-05-05T12:34:25.028Z,81.22
2023-05-05T12:36:52.208Z,81.24
2023-05-05T12:39:18.860Z,81.77
2023-05-05T12:41:45.531Z,81.82
2023-05-05T12:44:12.172Z,82.22
2023-05-05T12:46:49.253Z,82.07
2023-05-05T12:49:17.076Z,81.87
2023-05-05T12:51:54.454Z,82.23
2023-05-05T12:54:23.127Z,82.26
2023-05-05T12:56:51.513Z,82.63
2023-05-05T12:59:21.040Z,82.67
2023-05-05T13:01:53.807Z,82.90
2023-05-05T13:04:23.201Z,82.95
2023-05-05T13:07:07.603Z,82.86
2023-05-05T13:09:34.702Z,82.55
2023-05-05T13:14:59.049Z,83.16
2023-05-05T13:17:25.688Z,82.97
2023-05-05T13:19:52.410Z,83.04
2023-05-05T13:22:19.135Z,83.05
2023-05-05T13:24:51.565Z,82.99
2023-05-05T13:27:19.633Z,82.79
2023-05-05T13:29:48.695Z,82.89
2023-05-05T13:38:50.997Z,82.68
2023-05-05T13:41:17.547Z,82.82
2023-05-05T13:43:44.226Z,82.93
2023-05-05T13:48:43.322Z,82.49
2023-05-05T13:51:10.477Z,82.26
2023-05-05T13:53:37.136Z,82.57
2023-05-05T13:56:04.321Z,81.91
2023-05-05T13:58:31.076Z,81.71
2023-05-05T14:00:57.969Z,81.28
2023-05-05T14:03:24.664Z,81.94
2023-05-05T14:06:01.174Z,81.73
2023-05-05T14:08:28.640Z,81.88
2023-05-05T14:10:55.217Z,81.85
2023-05-05T14:13:21.777Z,81.47
2023-05-05T14:15:50.393Z,81.37
2023-05-05T14:18:17.278Z,81.39
2023-05-05T14:20:43.832Z,80.67
2023-05-05T14:23:10.448Z,81.70
2023-05-05T14:25:37.142Z,81.39
2023-05-05T14:28:03.991Z,82.12
2023-05-05T14:30:30.822Z,81.46
2023-05-05T14:32:57.454Z,81.29
2023-05-05T14:35:24.599Z,81.16
2023-05-05T14:37:51.560Z,81.20
2023-05-05T14:40:18.126Z,80.40
2023-05-05T14:42:44.858Z,80.05
2023-05-05T14:45:11.740Z,80.31
2023-05-05T14:47:38.574Z,79.44
2023-05-05T14:50:08.796Z,80.63
2023-05-05T14:52:37.401Z,80.99
2023-05-05T14:55:04.465Z,81.86
2023-05-05T14:57:31.168Z,81.78
2023-05-05T14:59:57.898Z,82.76
2023-05-05T15:02:24.757Z,81.85
2023-05-05T15:04:53.041Z,82.06
2023-05-05T15:07:20.822Z,81.85
2023-05-05T15:09:47.587Z,81.54
2023-05-05T15:12:14.189Z,81.67
2023-05-05T15:14:40.896Z,80.34
2023-05-05T15:17:07.515Z,81.05
2023-05-05T15:19:33.992Z,80.82
2023-05-05T15:22:00.691Z,79.70
2023-05-05T15:24:27.304Z,79.83
2023-05-05T15:26:53.856Z,79.83
2023-05-05T15:29:20.832Z,79.48
2023-05-05T15:31:47.704Z,79.85
2023-05-05T15:34:14.507Z,79.58
2023-05-05T15:36:41.226Z,79.54
2023-05-05T15:39:08.094Z,79.79
2023-05-05T15:41:35.038Z,80.26
2023-05-05T15:44:03.357Z,79.34
2023-05-05T15:46:33.565Z,78.38
2023-05-05T15:49:00.568Z,79.11
2023-05-05T15:51:27.470Z,79.20
2023-05-05T15:53:54.102Z,79.26
2023-05-05T15:56:20.957Z,78.33
2023-05-05T15:58:47.553Z,78.68
2023-05-05T16:01:14.148Z,79.02
2023-05-05T16:03:41.216Z,78.31
2023-05-05T16:06:08.015Z,78.30
2023-05-05T16:08:35.090Z,78.63
2023-05-05T16:11:01.824Z,78.72
2023-05-05T16:13:28.850Z,77.40
2023-05-05T16:15:55.865Z,76.97
2023-05-05T16:18:22.473Z,76.87
2023-05-05T16:20:49.217Z,76.91
2023-05-05T16:23:15.887Z,77.95
2023-05-05T16:25:42.640Z,76.52
2023-05-05T16:28:09.401Z,77.15
2023-05-05T16:30:36.161Z,76.29
2023-05-05T16:33:03.233Z,75.64
2023-05-05T16:35:29.911Z,75.58
2023-05-05T16:37:56.588Z,75.73
2023-05-05T16:40:23.432Z,75.01
2023-05-05T16:42:50.028Z,74.96
2023-05-05T16:45:16.747Z,75.11
2023-05-05T16:47:43.311Z,75.15
2023-05-05T16:50:10.508Z,75.07
2023-05-05T16:52:37.074Z,74.31
2023-05-05T16:55:05.034Z,74.65
2023-05-05T16:57:31.976Z,74.22
2023-05-05T16:59:58.503Z,73.70
2023-05-05T17:02:30.189Z,73.83
2023-05-05T17:04:56.847Z,73.79
2023-05-05T17:07:23.594Z,73.59
2023-05-05T17:09:50.200Z,74.50
2023-05-05T17:12:16.808Z,73.48
2023-05-05T17:14:44.621Z,73.71
2023-05-05T17:17:11.409Z,73.70
2023-05-05T17:19:38.003Z,73.75
2023-05-05T17:22:04.530Z,72.98
2023-05-05T17:24:31.496Z,73.50
2023-05-05T17:26:58.402Z,73.07
2023-05-05T17:29:25.005Z,72.53
2023-05-05T17:31:51.778Z,72.52
2023-05-05T17:34:18.519Z,72.38
2023-05-05T17:36:45.247Z,72.68
2023-05-05T17:39:11.915Z,72.42
2023-05-05T17:41:38.562Z,72.86
2023-05-05T17:44:05.260Z,72.23
2023-05-05T17:46:31.854Z,72.72
2023-05-05T17:48:58.649Z,72.56
2023-05-05T17:51:26.291Z,72.46
2023-05-05T17:53:53.175Z,72.99
2023-05-05T17:56:19.850Z,72.71
2023-05-05T17:58:46.685Z,72.44
2023-05-05T18:01:26.561Z,70.88
2023-05-05T18:03:53.507Z,72.75
2023-05-05T18:06:20.447Z,73.17
2023-05-05T18:08:47.065Z,72.92
2023-05-05T18:11:13.640Z,72.35
2023-05-05T18:13:40.301Z,73.69
2023-05-05T18:16:06.991Z,73.69
2023-05-05T18:18:33.776Z,73.92
2023-05-05T18:21:00.834Z,73.05
2023-05-05T18:23:27.469Z,73.68
2023-05-05T18:25:54.171Z,72.29
2023-05-05T18:28:20.790Z,73.09
2023-05-05T18:30:47.453Z,72.66
2023-05-05T18:33:14.080Z,72.63
2023-05-05T18:35:40.970Z,72.42
2023-05-05T18:38:07.545Z,72.12
2023-05-05T18:40:34.291Z,72.76
2023-05-05T18:43:01.996Z,72.47
2023-05-05T18:45:28.764Z,72.24
2023-05-05T18:47:56.517Z,72.50
2023-05-05T18:50:23.337Z,72.73
2023-05-05T18:52:49.867Z,72.86
2023-05-05T18:55:16.610Z,72.35
2023-05-05T18:57:43.257Z,73.39
2023-05-05T19:00:10.807Z,73.58
2023-05-05T19:02:37.489Z,73.80
2023-05-05T19:05:04.573Z,74.02
2023-05-05T19:07:35.004Z,73.25
2023-05-05T19:10:04.306Z,73.42
2023-05-05T19:12:30.974Z,74.00
2023-05-05T19:14:58.254Z,74.07
2023-05-05T19:17:25.224Z,74.32
2023-05-05T19:19:51.977Z,74.23
2023-05-05T19:22:18.689Z,74.53
2023-05-05T19:24:45.196Z,74.60
2023-05-05T19:27:15.493Z,74.42
2023-05-05T19:29:43.542Z,74.37
2023-05-05T19:32:10.224Z,74.28
2023-05-05T19:34:37.004Z,74.79
2023-05-05T19:37:03.696Z,75.05
2023-05-05T19:39:30.253Z,75.26
2023-05-05T19:41:57.036Z,75.06
2023-05-05T19:44:23.908Z,75.46
2023-05-05T19:46:52.733Z,75.33
2023-05-05T19:49:19.389Z,75.28
2023-05-05T19:51:47.598Z,75.53
2023-05-05T19:54:14.371Z,75.66
2023-05-05T19:56:40.965Z,75.40
2023-05-05T19:59:07.615Z,75.48
2023-05-05T20:01:35.432Z,75.23
2023-05-05T20:04:03.705Z,75.29
2023-05-05T20:06:30.399Z,74.78
2023-05-05T20:08:56.929Z,74.55
2023-05-05T20:11:24.927Z,75.20
2023-05-05T20:13:52.635Z,74.64
2023-05-05T20:16:19.449Z,74.36
2023-05-05T20:18:45.941Z,74.79
2023-05-05T20:21:12.717Z,74.24
2023-05-05T20:23:39.565Z,74.29
2023-05-05T20:26:06.504Z,74.34
2023-05-05T20:28:33.342Z,74.19
2023-05-05T20:31:01.019Z,74.31
2023-05-05T20:33:30.819Z,74.26
2023-05-05T20:35:57.508Z,74.40
2023-05-05T20:38:24.444Z,74.62
2023-05-05T20:40:52.163Z,74.52
2023-05-05T20:43:19.365Z,74.62
2023-05-05T20:45:46.050Z,74.54
2023-05-05T20:48:12.916Z,74.48
2023-05-05T20:50:41.686Z,74.13
2023-05-05T20:53:09.594Z,73.94
2023-05-05T20:55:36.455Z,73.93
2023-05-05T20:58:05.432Z,73.98
2023-05-05T21:00:32.418Z,73.55
2023-05-05T21:02:59.692Z,72.92
2023-05-05T21:05:26.713Z,73.71
2023-05-05T21:07:53.647Z,74.18
2023-05-05T21:10:20.542Z,73.66
2023-05-05T21:12:47.323Z,73.61
2023-05-05T21:15:13.936Z,74.35
2023-05-05T21:17:40.705Z,72.90
2023-05-05T21:20:08.193Z,73.27
2023-05-05T21:22:35.301Z,72.94
2023-05-05T21:25:11.426Z,74.09
2023-05-05T21:27:38.030Z,73.51
2023-05-05T21:30:05.579Z,73.90
2023-05-05T21:32:32.385Z,74.15
2023-05-05T21:34:59.004Z,73.78
2023-05-05T21:37:25.990Z,73.54
2023-05-05T21:39:52.491Z,73.75
2023-05-05T21:42:19.282Z,73.48
2023-05-05T21:44:45.859Z,73.34
2023-05-05T21:47:12.374Z,73.89
2023-05-05T21:49:39.034Z,74.24
2023-05-05T21:52:05.785Z,74.67
2023-05-05T21:54:32.305Z,73.55
2023-05-05T21:56:59.065Z,73.65
2023-05-05T21:59:25.712Z,74.30
2023-05-05T22:01:52.259Z,74.57
2023-05-05T22:04:18.970Z,73.87
2023-05-05T22:06:45.602Z,74.20
2023-05-05T22:09:12.221Z,74.91
2023-05-05T22:11:38.767Z,74.49
2023-05-05T22:14:05.361Z,74.02
2023-05-05T22:16:31.872Z,74.02
2023-05-05T22:18:58.413Z,74.49
2023-05-05T22:21:25.407Z,75.02
2023-05-05T22:23:51.998Z,74.45
2023-05-05T22:26:18.808Z,75.14
2023-05-05T22:28:45.485Z,74.88
2023-05-05T22:31:12.010Z,75.25
2023-05-05T22:33:39.659Z,75.70
2023-05-05T22:36:07.010Z,76.09
2023-05-05T22:38:33.645Z,76.78
2023-05-05T22:43:54.575Z,75.32
2023-05-05T22:46:21.268Z,74.93
2023-05-05T22:48:47.818Z,76.27
2023-05-05T22:54:08.598Z,76.45
2023-05-05T22:56:35.818Z,75.60
2023-05-05T22:59:02.337Z,75.95
2023-05-05T23:01:29.004Z,75.48
2023-05-05T23:03:55.702Z,75.44
2023-05-05T23:06:22.251Z,76.34
2023-05-05T23:08:49.293Z,76.73
2023-05-05T23:11:16.215Z,76.46
2023-05-05T23:13:42.807Z,76.65
2023-05-05T23:16:09.442Z,77.13
2023-05-05T23:18:36.787Z,76.64
2023-05-05T23:21:03.373Z,76.89
2023-05-05T23:23:30.740Z,77.60
2023-05-05T23:25:57.299Z,77.13
2023-05-05T23:28:24.245Z,77.87
2023-05-05T23:30:51.050Z,77.15
2023-05-05T23:33:17.934Z,77.54
2023-05-05T23:35:45.593Z,77.14
2023-05-05T23:38:12.110Z,77.81
2023-05-05T23:40:38.716Z,76.77
2023-05-05T23:43:05.306Z,77.15
2023-05-05T23:45:31.958Z,76.72
2023-05-05T23:47:58.578Z,77.44
2023-05-05T23:50:25.861Z,77.76
2023-05-05T23:52:52.342Z,77.67
2023-05-05T23:55:18.970Z,78.17
2023-05-05T23:57:45.497Z,79.56
